sensor_id;sensor_type;location;lat;lon;timestamp;temperature;humidity
33328;DHT22;19692;52.998;9.116;2023-08-06T00:00:21;14.60;99.90
33328;DHT22;19692;52.998;9.116;2023-08-06T00:02:48;14.60;99.90
33328;DHT22;19692;52.998;9.116;2023-08-06T00:05:14;14.70;99.90
33328;DHT22;19692;52.998;9.116;2023-08-06T00:07:44;14.70;99.90
33328;DHT22;19692;52.998;9.116;2023-08-06T00:10:10;14.70;99.90
33328;DHT22;19692;52.998;9.116;2023-08-06T00:12:36;14.70;99.90
33328;DHT22;19692;52.998;9.116;2023-08-06T00:15:02;14.80;99.90
33328;DHT22;19692;52.998;9.116;2023-08-06T00:17:28;14.70;99.90
33328;DHT22;19692;52.998;9.116;2023-08-06T00:19:53;14.80;99.90
33328;DHT22;19692;52.998;9.116;2023-08-06T00:22:19;14.80;99.90
33328;DHT22;19692;52.998;9.116;2023-08-06T00:24:45;14.80;99.90
33328;DHT22;19692;52.998;9.116;2023-08-06T00:27:11;14.80;99.90
33328;DHT22;19692;52.998;9.116;2023-08-06T00:29:37;14.70;99.90
33328;DHT22;19692;52.998;9.116;2023-08-06T00:32:03;14.70;99.90
33328;DHT22;19692;52.998;9.116;2023-08-06T00:34:28;14.80;99.90
33328;DHT22;19692;52.998;9.116;2023-08-06T00:36:54;14.80;99.90
33328;DHT22;19692;52.998;9.116;2023-08-06T00:39:20;14.80;99.90
33328;DHT22;19692;52.998;9.116;2023-08-06T00:41:46;14.80;99.90
33328;DHT22;19692;52.998;9.116;2023-08-06T00:44:11;14.80;99.90
33328;DHT22;19692;52.998;9.116;2023-08-06T00:46:37;14.80;99.90
33328;DHT22;19692;52.998;9.116;2023-08-06T00:49:04;14.80;99.90
33328;DHT22;19692;52.998;9.116;2023-08-06T00:51:30;14.90;99.90
33328;DHT22;19692;52.998;9.116;2023-08-06T00:53:57;14.80;99.90
33328;DHT22;19692;52.998;9.116;2023-08-06T00:56:24;14.80;99.90
33328;DHT22;19692;52.998;9.116;2023-08-06T00:58:50;14.90;99.90
33328;DHT22;19692;52.998;9.116;2023-08-06T01:01:16;14.90;99.90
33328;DHT22;19692;52.998;9.116;2023-08-06T01:03:42;14.90;99.90
33328;DHT22;19692;52.998;9.116;2023-08-06T01:06:09;14.90;99.90
33328;DHT22;19692;52.998;9.116;2023-08-06T01:08:54;14.90;99.90
33328;DHT22;19692;52.998;9.116;2023-08-06T01:11:49;14.90;99.90
33328;DHT22;19692;52.998;9.116;2023-08-06T01:14:42;14.90;99.90
33328;DHT22;19692;52.998;9.116;2023-08-06T01:17:14;14.80;99.90
33328;DHT22;19692;52.998;9.116;2023-08-06T01:19:39;14.80;99.90
33328;DHT22;19692;52.998;9.116;2023-08-06T01:22:05;14.80;99.90
33328;DHT22;19692;52.998;9.116;2023-08-06T01:24:31;14.70;99.90
33328;DHT22;19692;52.998;9.116;2023-08-06T01:27:11;14.60;99.90
33328;DHT22;19692;52.998;9.116;2023-08-06T01:29:59;14.60;99.90
33328;DHT22;19692;52.998;9.116;2023-08-06T01:32:32;14.60;99.90
33328;DHT22;19692;52.998;9.116;2023-08-06T01:35:01;14.70;99.90
33328;DHT22;19692;52.998;9.116;2023-08-06T01:37:28;14.70;99.90
33328;DHT22;19692;52.998;9.116;2023-08-06T01:39:54;14.70;99.90
33328;DHT22;19692;52.998;9.116;2023-08-06T01:42:19;14.70;99.90
33328;DHT22;19692;52.998;9.116;2023-08-06T01:44:45;14.70;99.90
33328;DHT22;19692;52.998;9.116;2023-08-06T01:47:11;14.70;99.90
33328;DHT22;19692;52.998;9.116;2023-08-06T01:49:37;14.70;99.90
33328;DHT22;19692;52.998;9.116;2023-08-06T01:52:03;14.60;99.90
33328;DHT22;19692;52.998;9.116;2023-08-06T01:54:28;14.60;99.90
33328;DHT22;19692;52.998;9.116;2023-08-06T01:56:54;14.60;99.90
33328;DHT22;19692;52.998;9.116;2023-08-06T01:59:20;14.60;99.90
33328;DHT22;19692;52.998;9.116;2023-08-06T02:01:46;14.60;99.90
33328;DHT22;19692;52.998;9.116;2023-08-06T02:04:12;14.50;99.90
33328;DHT22;19692;52.998;9.116;2023-08-06T02:06:37;14.60;99.90
33328;DHT22;19692;52.998;9.116;2023-08-06T02:09:03;14.50;99.90
33328;DHT22;19692;52.998;9.116;2023-08-06T02:11:29;14.60;99.90
33328;DHT22;19692;52.998;9.116;2023-08-06T02:13:54;14.50;99.90
33328;DHT22;19692;52.998;9.116;2023-08-06T02:16:20;14.50;99.90
33328;DHT22;19692;52.998;9.116;2023-08-06T02:18:46;14.50;99.90
33328;DHT22;19692;52.998;9.116;2023-08-06T02:21:12;14.50;99.90
33328;DHT22;19692;52.998;9.116;2023-08-06T02:23:37;14.50;99.90
33328;DHT22;19692;52.998;9.116;2023-08-06T02:26:04;14.50;99.90
33328;DHT22;19692;52.998;9.116;2023-08-06T02:28:30;14.40;99.90
33328;DHT22;19692;52.998;9.116;2023-08-06T02:30:56;14.50;99.90
33328;DHT22;19692;52.998;9.116;2023-08-06T02:33:22;14.40;99.90
33328;DHT22;19692;52.998;9.116;2023-08-06T02:35:48;14.40;99.90
33328;DHT22;19692;52.998;9.116;2023-08-06T02:38:14;14.40;99.90
33328;DHT22;19692;52.998;9.116;2023-08-06T02:40:44;14.30;99.90
33328;DHT22;19692;52.998;9.116;2023-08-06T02:43:13;14.30;99.90
33328;DHT22;19692;52.998;9.116;2023-08-06T02:45:39;14.30;99.90
33328;DHT22;19692;52.998;9.116;2023-08-06T02:48:05;14.20;99.90
33328;DHT22;19692;52.998;9.116;2023-08-06T02:50:35;14.30;99.90
33328;DHT22;19692;52.998;9.116;2023-08-06T02:53:03;14.30;99.90
33328;DHT22;19692;52.998;9.116;2023-08-06T02:55:29;14.30;99.90
33328;DHT22;19692;52.998;9.116;2023-08-06T02:57:54;14.30;99.90
33328;DHT22;19692;52.998;9.116;2023-08-06T03:00:20;14.30;99.90
33328;DHT22;19692;52.998;9.116;2023-08-06T03:02:46;14.30;99.90
33328;DHT22;19692;52.998;9.116;2023-08-06T03:05:11;14.40;99.90
33328;DHT22;19692;52.998;9.116;2023-08-06T03:07:37;14.40;99.90
33328;DHT22;19692;52.998;9.116;2023-08-06T03:10:03;14.30;99.90
33328;DHT22;19692;52.998;9.116;2023-08-06T03:12:29;14.30;99.90
33328;DHT22;19692;52.998;9.116;2023-08-06T03:14:55;14.30;99.90
33328;DHT22;19692;52.998;9.116;2023-08-06T03:17:20;14.40;99.90
33328;DHT22;19692;52.998;9.116;2023-08-06T03:19:46;14.40;99.90
33328;DHT22;19692;52.998;9.116;2023-08-06T03:22:12;14.40;99.90
33328;DHT22;19692;52.998;9.116;2023-08-06T03:24:38;14.40;99.90
33328;DHT22;19692;52.998;9.116;2023-08-06T03:27:04;14.50;99.90
33328;DHT22;19692;52.998;9.116;2023-08-06T03:29:29;14.40;99.90
33328;DHT22;19692;52.998;9.116;2023-08-06T03:31:55;14.40;99.90
33328;DHT22;19692;52.998;9.116;2023-08-06T03:34:21;14.40;99.90
33328;DHT22;19692;52.998;9.116;2023-08-06T03:36:47;14.40;99.90
33328;DHT22;19692;52.998;9.116;2023-08-06T03:39:12;14.40;99.90
33328;DHT22;19692;52.998;9.116;2023-08-06T03:41:39;14.40;99.90
33328;DHT22;19692;52.998;9.116;2023-08-06T03:44:05;14.50;99.90
33328;DHT22;19692;52.998;9.116;2023-08-06T03:46:31;14.50;99.90
33328;DHT22;19692;52.998;9.116;2023-08-06T03:49:00;14.50;99.90
33328;DHT22;19692;52.998;9.116;2023-08-06T03:51:26;14.50;99.90
33328;DHT22;19692;52.998;9.116;2023-08-06T03:53:51;14.60;99.90
33328;DHT22;19692;52.998;9.116;2023-08-06T03:56:17;14.60;99.90
33328;DHT22;19692;52.998;9.116;2023-08-06T03:58:43;14.60;99.90
33328;DHT22;19692;52.998;9.116;2023-08-06T04:01:09;14.50;99.90
33328;DHT22;19692;52.998;9.116;2023-08-06T04:03:35;14.50;99.90
33328;DHT22;19692;52.998;9.116;2023-08-06T04:06:02;14.50;99.90
33328;DHT22;19692;52.998;9.116;2023-08-06T04:08:28;14.50;99.90
33328;DHT22;19692;52.998;9.116;2023-08-06T04:10:54;14.50;99.90
33328;DHT22;19692;52.998;9.116;2023-08-06T04:13:20;14.40;99.90
33328;DHT22;19692;52.998;9.116;2023-08-06T04:15:46;14.40;99.90
33328;DHT22;19692;52.998;9.116;2023-08-06T04:18:12;14.50;99.90
33328;DHT22;19692;52.998;9.116;2023-08-06T04:20:45;14.40;99.90
33328;DHT22;19692;52.998;9.116;2023-08-06T04:23:12;14.40;99.90
33328;DHT22;19692;52.998;9.116;2023-08-06T04:25:38;14.40;99.90
33328;DHT22;19692;52.998;9.116;2023-08-06T04:28:04;14.40;99.90
33328;DHT22;19692;52.998;9.116;2023-08-06T04:30:30;14.40;99.90
33328;DHT22;19692;52.998;9.116;2023-08-06T04:32:59;14.50;99.90
33328;DHT22;19692;52.998;9.116;2023-08-06T04:35:25;14.40;99.90
33328;DHT22;19692;52.998;9.116;2023-08-06T04:37:50;14.50;99.90
33328;DHT22;19692;52.998;9.116;2023-08-06T04:40:16;14.50;99.90
33328;DHT22;19692;52.998;9.116;2023-08-06T04:42:42;14.50;99.90
33328;DHT22;19692;52.998;9.116;2023-08-06T04:45:08;14.50;99.90
33328;DHT22;19692;52.998;9.116;2023-08-06T04:47:34;14.50;99.90
33328;DHT22;19692;52.998;9.116;2023-08-06T04:50:00;14.50;99.90
33328;DHT22;19692;52.998;9.116;2023-08-06T04:52:25;14.50;99.90
33328;DHT22;19692;52.998;9.116;2023-08-06T04:54:54;14.50;99.90
33328;DHT22;19692;52.998;9.116;2023-08-06T04:57:20;14.50;99.90
33328;DHT22;19692;52.998;9.116;2023-08-06T04:59:46;14.50;99.90
33328;DHT22;19692;52.998;9.116;2023-08-06T05:02:12;14.50;99.90
33328;DHT22;19692;52.998;9.116;2023-08-06T05:04:38;14.50;99.90
33328;DHT22;19692;52.998;9.116;2023-08-06T05:07:05;14.60;99.90
33328;DHT22;19692;52.998;9.116;2023-08-06T05:09:31;14.60;99.90
33328;DHT22;19692;52.998;9.116;2023-08-06T05:12:00;14.50;99.90
33328;DHT22;19692;52.998;9.116;2023-08-06T05:14:26;14.50;99.90
33328;DHT22;19692;52.998;9.116;2023-08-06T05:16:52;14.60;99.90
33328;DHT22;19692;52.998;9.116;2023-08-06T05:19:18;14.60;99.90
33328;DHT22;19692;52.998;9.116;2023-08-06T05:21:43;14.60;99.90
33328;DHT22;19692;52.998;9.116;2023-08-06T05:24:09;14.70;99.90
33328;DHT22;19692;52.998;9.116;2023-08-06T05:26:35;14.70;99.90
33328;DHT22;19692;52.998;9.116;2023-08-06T05:29:00;14.60;99.90
33328;DHT22;19692;52.998;9.116;2023-08-06T05:31:26;14.70;99.90
33328;DHT22;19692;52.998;9.116;2023-08-06T05:33:54;14.70;99.90
33328;DHT22;19692;52.998;9.116;2023-08-06T05:36:20;14.70;99.90
33328;DHT22;19692;52.998;9.116;2023-08-06T05:38:46;14.80;99.90
33328;DHT22;19692;52.998;9.116;2023-08-06T05:41:12;14.80;99.90
33328;DHT22;19692;52.998;9.116;2023-08-06T05:43:39;14.80;99.90
33328;DHT22;19692;52.998;9.116;2023-08-06T05:46:04;14.90;99.90
33328;DHT22;19692;52.998;9.116;2023-08-06T05:48:30;14.90;99.90
33328;DHT22;19692;52.998;9.116;2023-08-06T05:50:57;14.90;99.90
33328;DHT22;19692;52.998;9.116;2023-08-06T05:53:24;15.00;99.90
33328;DHT22;19692;52.998;9.116;2023-08-06T05:55:50;15.10;99.90
33328;DHT22;19692;52.998;9.116;2023-08-06T05:58:15;15.10;99.90
33328;DHT22;19692;52.998;9.116;2023-08-06T06:00:41;15.20;99.90
33328;DHT22;19692;52.998;9.116;2023-08-06T06:03:07;15.30;99.90
33328;DHT22;19692;52.998;9.116;2023-08-06T06:05:33;15.40;99.90
33328;DHT22;19692;52.998;9.116;2023-08-06T06:07:58;15.50;99.90
33328;DHT22;19692;52.998;9.116;2023-08-06T06:10:24;15.50;99.90
33328;DHT22;19692;52.998;9.116;2023-08-06T06:12:50;15.50;99.90
33328;DHT22;19692;52.998;9.116;2023-08-06T06:15:16;15.60;99.90
33328;DHT22;19692;52.998;9.116;2023-08-06T06:17:41;15.60;99.90
33328;DHT22;19692;52.998;9.116;2023-08-06T06:20:07;15.60;99.90
33328;DHT22;19692;52.998;9.116;2023-08-06T06:22:33;15.60;99.90
33328;DHT22;19692;52.998;9.116;2023-08-06T06:24:59;15.60;99.90
33328;DHT22;19692;52.998;9.116;2023-08-06T06:27:25;15.60;99.90
33328;DHT22;19692;52.998;9.116;2023-08-06T06:29:51;15.60;99.90
33328;DHT22;19692;52.998;9.116;2023-08-06T06:32:17;15.70;99.90
33328;DHT22;19692;52.998;9.116;2023-08-06T06:34:43;15.70;99.90
33328;DHT22;19692;52.998;9.116;2023-08-06T06:37:09;15.80;99.90
33328;DHT22;19692;52.998;9.116;2023-08-06T06:39:35;15.90;99.90
33328;DHT22;19692;52.998;9.116;2023-08-06T06:42:00;16.00;99.90
33328;DHT22;19692;52.998;9.116;2023-08-06T06:44:26;16.00;99.90
33328;DHT22;19692;52.998;9.116;2023-08-06T06:46:52;16.10;99.90
33328;DHT22;19692;52.998;9.116;2023-08-06T06:49:18;16.10;99.90
33328;DHT22;19692;52.998;9.116;2023-08-06T06:51:43;16.10;99.90
33328;DHT22;19692;52.998;9.116;2023-08-06T06:54:09;16.20;99.90
33328;DHT22;19692;52.998;9.116;2023-08-06T06:56:35;16.30;99.90
33328;DHT22;19692;52.998;9.116;2023-08-06T06:59:01;16.20;99.90
33328;DHT22;19692;52.998;9.116;2023-08-06T07:01:27;16.30;99.90
33328;DHT22;19692;52.998;9.116;2023-08-06T07:03:52;16.30;99.90
33328;DHT22;19692;52.998;9.116;2023-08-06T07:06:18;16.40;99.90
33328;DHT22;19692;52.998;9.116;2023-08-06T07:08:45;16.50;99.90
33328;DHT22;19692;52.998;9.116;2023-08-06T07:11:11;16.60;99.90
33328;DHT22;19692;52.998;9.116;2023-08-06T07:13:37;16.80;99.90
33328;DHT22;19692;52.998;9.116;2023-08-06T07:16:03;16.90;99.90
33328;DHT22;19692;52.998;9.116;2023-08-06T07:18:32;16.80;99.90
33328;DHT22;19692;52.998;9.116;2023-08-06T07:21:01;16.70;99.90
33328;DHT22;19692;52.998;9.116;2023-08-06T07:23:26;16.70;99.90
33328;DHT22;19692;52.998;9.116;2023-08-06T07:25:52;16.80;99.90
33328;DHT22;19692;52.998;9.116;2023-08-06T07:28:20;17.00;99.90
33328;DHT22;19692;52.998;9.116;2023-08-06T07:30:52;17.10;99.90
33328;DHT22;19692;52.998;9.116;2023-08-06T07:33:18;17.20;99.90
33328;DHT22;19692;52.998;9.116;2023-08-06T07:35:44;17.30;99.90
33328;DHT22;19692;52.998;9.116;2023-08-06T07:38:10;17.50;99.90
33328;DHT22;19692;52.998;9.116;2023-08-06T07:40:36;17.90;99.90
33328;DHT22;19692;52.998;9.116;2023-08-06T07:43:03;18.20;99.90
33328;DHT22;19692;52.998;9.116;2023-08-06T07:45:33;18.50;99.90
33328;DHT22;19692;52.998;9.116;2023-08-06T07:48:00;18.70;99.90
33328;DHT22;19692;52.998;9.116;2023-08-06T07:50:25;18.80;99.90
33328;DHT22;19692;52.998;9.116;2023-08-06T07:52:51;18.70;99.90
33328;DHT22;19692;52.998;9.116;2023-08-06T07:55:17;18.50;99.90
33328;DHT22;19692;52.998;9.116;2023-08-06T07:57:43;18.50;99.90
33328;DHT22;19692;52.998;9.116;2023-08-06T08:00:09;18.60;99.90
33328;DHT22;19692;52.998;9.116;2023-08-06T08:02:35;18.80;99.90
33328;DHT22;19692;52.998;9.116;2023-08-06T08:05:01;18.90;99.90
33328;DHT22;19692;52.998;9.116;2023-08-06T08:07:26;19.00;99.90
33328;DHT22;19692;52.998;9.116;2023-08-06T08:09:55;19.20;99.90
33328;DHT22;19692;52.998;9.116;2023-08-06T08:12:22;19.30;99.90
33328;DHT22;19692;52.998;9.116;2023-08-06T08:14:48;19.40;99.90
33328;DHT22;19692;52.998;9.116;2023-08-06T08:17:14;19.40;99.90
33328;DHT22;19692;52.998;9.116;2023-08-06T08:19:40;19.70;99.90
33328;DHT22;19692;52.998;9.116;2023-08-06T08:22:06;19.80;99.90
33328;DHT22;19692;52.998;9.116;2023-08-06T08:24:32;20.10;99.90
33328;DHT22;19692;52.998;9.116;2023-08-06T08:26:58;20.20;99.90
33328;DHT22;19692;52.998;9.116;2023-08-06T08:29:23;20.30;99.90
33328;DHT22;19692;52.998;9.116;2023-08-06T08:31:49;20.40;99.90
33328;DHT22;19692;52.998;9.116;2023-08-06T08:34:18;20.50;99.90
33328;DHT22;19692;52.998;9.116;2023-08-06T08:36:44;20.30;99.90
33328;DHT22;19692;52.998;9.116;2023-08-06T08:39:13;20.30;99.90
33328;DHT22;19692;52.998;9.116;2023-08-06T08:41:39;20.20;99.90
33328;DHT22;19692;52.998;9.116;2023-08-06T08:44:09;20.20;99.90
33328;DHT22;19692;52.998;9.116;2023-08-06T08:46:40;20.30;99.90
33328;DHT22;19692;52.998;9.116;2023-08-06T08:49:07;20.30;99.90
33328;DHT22;19692;52.998;9.116;2023-08-06T08:51:33;20.70;99.90
33328;DHT22;19692;52.998;9.116;2023-08-06T08:54:03;20.90;99.90
33328;DHT22;19692;52.998;9.116;2023-08-06T08:56:29;21.30;99.90
33328;DHT22;19692;52.998;9.116;2023-08-06T08:58:56;21.60;99.90
33328;DHT22;19692;52.998;9.116;2023-08-06T09:01:22;21.70;99.90
33328;DHT22;19692;52.998;9.116;2023-08-06T09:03:48;22.00;99.90
33328;DHT22;19692;52.998;9.116;2023-08-06T09:06:15;22.10;99.90
33328;DHT22;19692;52.998;9.116;2023-08-06T09:09:11;22.20;99.90
33328;DHT22;19692;52.998;9.116;2023-08-06T09:11:43;22.50;99.90
33328;DHT22;19692;52.998;9.116;2023-08-06T09:14:10;22.90;99.90
33328;DHT22;19692;52.998;9.116;2023-08-06T09:16:37;22.90;99.90
33328;DHT22;19692;52.998;9.116;2023-08-06T09:19:13;22.80;99.90
33328;DHT22;19692;52.998;9.116;2023-08-06T09:21:41;23.00;99.90
33328;DHT22;19692;52.998;9.116;2023-08-06T09:24:12;23.20;99.90
33328;DHT22;19692;52.998;9.116;2023-08-06T09:26:43;23.30;99.90
33328;DHT22;19692;52.998;9.116;2023-08-06T09:29:10;23.30;99.90
33328;DHT22;19692;52.998;9.116;2023-08-06T09:31:43;23.40;99.90
33328;DHT22;19692;52.998;9.116;2023-08-06T09:34:18;23.60;99.90
33328;DHT22;19692;52.998;9.116;2023-08-06T09:36:52;23.20;99.90
33328;DHT22;19692;52.998;9.116;2023-08-06T09:39:28;23.20;99.90
33328;DHT22;19692;52.998;9.116;2023-08-06T09:41:59;23.50;99.90
33328;DHT22;19692;52.998;9.116;2023-08-06T09:44:27;23.80;99.90
33328;DHT22;19692;52.998;9.116;2023-08-06T09:46:56;24.10;99.90
33328;DHT22;19692;52.998;9.116;2023-08-06T09:51:58;23.60;99.90
33328;DHT22;19692;52.998;9.116;2023-08-06T09:54:26;23.70;99.90
33328;DHT22;19692;52.998;9.116;2023-08-06T09:56:53;23.60;99.90
33328;DHT22;19692;52.998;9.116;2023-08-06T09:59:20;23.40;99.90
33328;DHT22;19692;52.998;9.116;2023-08-06T10:01:46;23.80;99.90
33328;DHT22;19692;52.998;9.116;2023-08-06T10:04:14;24.10;99.90
33328;DHT22;19692;52.998;9.116;2023-08-06T10:06:42;24.40;99.90
33328;DHT22;19692;52.998;9.116;2023-08-06T10:09:09;24.80;99.90
33328;DHT22;19692;52.998;9.116;2023-08-06T10:11:39;24.70;99.90
33328;DHT22;19692;52.998;9.116;2023-08-06T10:14:20;24.50;99.90
33328;DHT22;19692;52.998;9.116;2023-08-06T10:16:49;24.20;99.90
33328;DHT22;19692;52.998;9.116;2023-08-06T10:19:19;23.90;99.90
33328;DHT22;19692;52.998;9.116;2023-08-06T10:22:11;24.00;99.90
33328;DHT22;19692;52.998;9.116;2023-08-06T10:24:54;24.20;99.90
33328;DHT22;19692;52.998;9.116;2023-08-06T10:27:23;24.10;99.90
33328;DHT22;19692;52.998;9.116;2023-08-06T10:29:55;24.20;99.90
33328;DHT22;19692;52.998;9.116;2023-08-06T10:32:21;24.50;99.90
33328;DHT22;19692;52.998;9.116;2023-08-06T10:34:54;24.90;99.90
33328;DHT22;19692;52.998;9.116;2023-08-06T10:37:34;25.30;99.90
33328;DHT22;19692;52.998;9.116;2023-08-06T10:40:05;25.50;99.90
33328;DHT22;19692;52.998;9.116;2023-08-06T10:42:33;25.60;99.90
33328;DHT22;19692;52.998;9.116;2023-08-06T10:45:15;25.80;99.90
33328;DHT22;19692;52.998;9.116;2023-08-06T10:47:45;25.60;99.90
33328;DHT22;19692;52.998;9.116;2023-08-06T10:50:13;25.80;99.90
33328;DHT22;19692;52.998;9.116;2023-08-06T10:52:42;25.70;99.90
33328;DHT22;19692;52.998;9.116;2023-08-06T10:55:09;25.80;99.90
33328;DHT22;19692;52.998;9.116;2023-08-06T10:57:35;25.80;99.90
33328;DHT22;19692;52.998;9.116;2023-08-06T11:00:03;26.10;99.90
33328;DHT22;19692;52.998;9.116;2023-08-06T11:02:33;26.20;99.90
33328;DHT22;19692;52.998;9.116;2023-08-06T11:05:08;26.60;99.90
33328;DHT22;19692;52.998;9.116;2023-08-06T11:07:37;26.90;99.90
33328;DHT22;19692;52.998;9.116;2023-08-06T11:10:04;27.20;99.90
33328;DHT22;19692;52.998;9.116;2023-08-06T11:12:34;27.40;99.90
33328;DHT22;19692;52.998;9.116;2023-08-06T11:15:01;27.40;99.90
33328;DHT22;19692;52.998;9.116;2023-08-06T11:17:30;26.80;99.90
33328;DHT22;19692;52.998;9.116;2023-08-06T11:20:02;25.40;99.90
33328;DHT22;19692;52.998;9.116;2023-08-06T11:22:29;24.70;99.90
33328;DHT22;19692;52.998;9.116;2023-08-06T11:24:56;24.60;99.90
33328;DHT22;19692;52.998;9.116;2023-08-06T11:27:22;24.40;99.90
33328;DHT22;19692;52.998;9.116;2023-08-06T11:29:48;24.40;99.90
33328;DHT22;19692;52.998;9.116;2023-08-06T11:32:14;24.40;99.90
33328;DHT22;19692;52.998;9.116;2023-08-06T11:34:40;24.20;99.90
33328;DHT22;19692;52.998;9.116;2023-08-06T11:37:07;24.00;99.90
33328;DHT22;19692;52.998;9.116;2023-08-06T11:39:35;24.00;99.90
33328;DHT22;19692;52.998;9.116;2023-08-06T11:42:05;23.70;99.90
33328;DHT22;19692;52.998;9.116;2023-08-06T11:44:34;23.60;99.90
33328;DHT22;19692;52.998;9.116;2023-08-06T11:47:03;23.60;99.90
33328;DHT22;19692;52.998;9.116;2023-08-06T11:49:44;23.60;99.90
33328;DHT22;19692;52.998;9.116;2023-08-06T11:55:07;23.40;99.90
33328;DHT22;19692;52.998;9.116;2023-08-06T11:57:38;23.30;99.90
33328;DHT22;19692;52.998;9.116;2023-08-06T12:02:33;23.80;99.90
33328;DHT22;19692;52.998;9.116;2023-08-06T12:05:09;24.40;99.90
33328;DHT22;19692;52.998;9.116;2023-08-06T12:07:41;25.00;99.90
33328;DHT22;19692;52.998;9.116;2023-08-06T12:10:08;25.80;99.90
33328;DHT22;19692;52.998;9.116;2023-08-06T12:12:35;26.10;99.90
33328;DHT22;19692;52.998;9.116;2023-08-06T12:15:01;26.30;99.90
33328;DHT22;19692;52.998;9.116;2023-08-06T12:17:27;26.30;99.90
33328;DHT22;19692;52.998;9.116;2023-08-06T12:19:53;26.30;99.90
33328;DHT22;19692;52.998;9.116;2023-08-06T12:22:19;26.40;99.90
33328;DHT22;19692;52.998;9.116;2023-08-06T12:24:46;26.30;99.90
33328;DHT22;19692;52.998;9.116;2023-08-06T12:27:13;26.20;99.90
33328;DHT22;19692;52.998;9.116;2023-08-06T12:29:43;26.10;99.90
33328;DHT22;19692;52.998;9.116;2023-08-06T12:32:10;26.50;99.90
33328;DHT22;19692;52.998;9.116;2023-08-06T12:34:38;26.60;99.90
33328;DHT22;19692;52.998;9.116;2023-08-06T12:37:05;26.70;99.90
33328;DHT22;19692;52.998;9.116;2023-08-06T12:39:32;26.70;99.90
33328;DHT22;19692;52.998;9.116;2023-08-06T12:42:04;26.30;99.90
33328;DHT22;19692;52.998;9.116;2023-08-06T12:44:30;26.50;99.90
33328;DHT22;19692;52.998;9.116;2023-08-06T12:46:56;26.20;99.90
33328;DHT22;19692;52.998;9.116;2023-08-06T12:49:22;25.80;99.90
33328;DHT22;19692;52.998;9.116;2023-08-06T12:51:52;25.50;99.90
33328;DHT22;19692;52.998;9.116;2023-08-06T12:54:19;25.10;99.90
33328;DHT22;19692;52.998;9.116;2023-08-06T12:56:46;24.80;99.90
33328;DHT22;19692;52.998;9.116;2023-08-06T12:59:14;24.90;99.90
33328;DHT22;19692;52.998;9.116;2023-08-06T13:01:40;25.40;99.90
33328;DHT22;19692;52.998;9.116;2023-08-06T13:04:06;25.90;99.90
33328;DHT22;19692;52.998;9.116;2023-08-06T13:06:32;26.10;99.90
33328;DHT22;19692;52.998;9.116;2023-08-06T13:09:15;26.30;99.90
33328;DHT22;19692;52.998;9.116;2023-08-06T13:11:41;25.90;99.90
33328;DHT22;19692;52.998;9.116;2023-08-06T13:14:12;25.50;99.90
33328;DHT22;19692;52.998;9.116;2023-08-06T13:16:40;25.40;99.90
33328;DHT22;19692;52.998;9.116;2023-08-06T13:19:08;25.20;99.90
33328;DHT22;19692;52.998;9.116;2023-08-06T13:21:34;24.80;99.90
33328;DHT22;19692;52.998;9.116;2023-08-06T13:24:01;24.80;99.90
33328;DHT22;19692;52.998;9.116;2023-08-06T13:26:30;24.70;99.90
33328;DHT22;19692;52.998;9.116;2023-08-06T13:28:57;24.60;99.90
33328;DHT22;19692;52.998;9.116;2023-08-06T13:31:24;24.70;99.90
33328;DHT22;19692;52.998;9.116;2023-08-06T13:33:50;25.10;99.90
33328;DHT22;19692;52.998;9.116;2023-08-06T13:36:16;25.30;99.90
33328;DHT22;19692;52.998;9.116;2023-08-06T13:38:42;25.50;99.90
33328;DHT22;19692;52.998;9.116;2023-08-06T13:41:08;25.50;99.90
33328;DHT22;19692;52.998;9.116;2023-08-06T13:43:34;25.20;99.90
33328;DHT22;19692;52.998;9.116;2023-08-06T13:46:00;25.00;99.90
33328;DHT22;19692;52.998;9.116;2023-08-06T13:48:26;25.20;99.90
33328;DHT22;19692;52.998;9.116;2023-08-06T13:50:51;25.40;99.90
33328;DHT22;19692;52.998;9.116;2023-08-06T13:53:17;25.60;99.90
33328;DHT22;19692;52.998;9.116;2023-08-06T13:55:43;25.90;99.90
33328;DHT22;19692;52.998;9.116;2023-08-06T13:58:09;25.80;99.90
33328;DHT22;19692;52.998;9.116;2023-08-06T14:00:36;25.50;99.90
33328;DHT22;19692;52.998;9.116;2023-08-06T14:03:02;25.30;99.90
33328;DHT22;19692;52.998;9.116;2023-08-06T14:05:28;25.30;99.90
33328;DHT22;19692;52.998;9.116;2023-08-06T14:07:53;25.70;99.90
33328;DHT22;19692;52.998;9.116;2023-08-06T14:10:19;25.90;99.90
33328;DHT22;19692;52.998;9.116;2023-08-06T14:12:45;26.00;99.90
33328;DHT22;19692;52.998;9.116;2023-08-06T14:15:11;25.90;99.90
33328;DHT22;19692;52.998;9.116;2023-08-06T14:17:37;25.70;99.90
33328;DHT22;19692;52.998;9.116;2023-08-06T14:20:04;25.60;99.90
33328;DHT22;19692;52.998;9.116;2023-08-06T14:22:32;25.70;99.90
33328;DHT22;19692;52.998;9.116;2023-08-06T14:24:58;25.60;99.90
33328;DHT22;19692;52.998;9.116;2023-08-06T14:27:24;25.60;99.90
33328;DHT22;19692;52.998;9.116;2023-08-06T14:29:50;25.40;99.90
33328;DHT22;19692;52.998;9.116;2023-08-06T14:32:16;25.00;99.90
33328;DHT22;19692;52.998;9.116;2023-08-06T14:34:44;25.10;99.90
33328;DHT22;19692;52.998;9.116;2023-08-06T14:37:10;25.10;99.90
33328;DHT22;19692;52.998;9.116;2023-08-06T14:39:36;24.80;99.90
33328;DHT22;19692;52.998;9.116;2023-08-06T14:42:03;24.80;99.90
33328;DHT22;19692;52.998;9.116;2023-08-06T14:44:29;24.70;99.90
33328;DHT22;19692;52.998;9.116;2023-08-06T14:46:55;24.90;99.90
33328;DHT22;19692;52.998;9.116;2023-08-06T14:49:21;25.00;99.90
33328;DHT22;19692;52.998;9.116;2023-08-06T14:51:47;25.20;99.90
33328;DHT22;19692;52.998;9.116;2023-08-06T14:54:12;25.20;99.90
33328;DHT22;19692;52.998;9.116;2023-08-06T14:56:38;25.30;99.90
33328;DHT22;19692;52.998;9.116;2023-08-06T14:59:04;25.10;99.90
33328;DHT22;19692;52.998;9.116;2023-08-06T15:01:30;24.90;99.90
33328;DHT22;19692;52.998;9.116;2023-08-06T15:03:55;24.80;99.90
33328;DHT22;19692;52.998;9.116;2023-08-06T15:06:21;24.90;99.90
33328;DHT22;19692;52.998;9.116;2023-08-06T15:08:47;24.90;99.90
33328;DHT22;19692;52.998;9.116;2023-08-06T15:11:13;25.10;99.90
33328;DHT22;19692;52.998;9.116;2023-08-06T15:13:40;25.30;99.90
33328;DHT22;19692;52.998;9.116;2023-08-06T15:16:06;25.20;99.90
33328;DHT22;19692;52.998;9.116;2023-08-06T15:18:31;24.90;99.90
33328;DHT22;19692;52.998;9.116;2023-08-06T15:20:57;24.40;99.90
33328;DHT22;19692;52.998;9.116;2023-08-06T15:23:24;23.90;99.90
33328;DHT22;19692;52.998;9.116;2023-08-06T15:25:50;23.70;99.90
33328;DHT22;19692;52.998;9.116;2023-08-06T15:28:16;23.70;99.90
33328;DHT22;19692;52.998;9.116;2023-08-06T15:30:51;23.70;99.90
33328;DHT22;19692;52.998;9.116;2023-08-06T15:33:18;24.00;99.90
33328;DHT22;19692;52.998;9.116;2023-08-06T15:35:44;24.30;99.90
33328;DHT22;19692;52.998;9.116;2023-08-06T15:38:10;24.40;99.90